Time;durP1;ratioP1;P1;durP2;ratioP2;P2;SDS_P1;SDS_P2;PMS_P1;PMS_P2;Temp;Humidity;BMP_temperature;BMP_pressure;BME280_temperature;BME280_humidity;BME280_pressure;Samples;Min_cycle;Max_cycle;Signal;HPM_P1;HPM_P2
2023/06/19 00:00:31;;;;;;;10.02;9.23;;;21.90;88.30;;;22.91;51.19;97471.63;5194819;28;20234;-66
2023/06/19 00:03:04;;;;;;;9.35;8.65;;;21.90;88.60;;;22.82;51.97;97469.00;5197366;28;20231;-65
2023/06/19 00:05:37;;;;;;;10.02;9.23;;;21.80;89.20;;;22.84;52.32;97469.91;5196561;28;20320;-65
2023/06/19 00:08:10;;;;;;;10.35;9.55;;;21.80;89.80;;;22.87;51.84;97474.25;5199192;28;20222;-65
2023/06/19 00:10:44;;;;;;;9.95;9.15;;;21.80;89.20;;;22.78;52.40;97480.31;5194210;28;20237;-65
2023/06/19 00:13:18;;;;;;;8.80;8.10;;;21.70;90.00;;;22.79;52.47;97484.66;5199564;28;20221;-66
2023/06/19 00:15:53;;;;;;;8.90;8.30;;;21.70;90.30;;;22.76;52.51;97479.44;5198200;28;20225;-65
2023/06/19 00:18:26;;;;;;;9.95;9.15;;;21.70;90.10;;;22.85;51.81;97482.06;5194325;28;21061;-65
2023/06/19 00:20:59;;;;;;;8.90;8.13;;;21.70;89.40;;;22.73;52.03;97479.44;5198866;28;20226;-64
2023/06/19 00:23:32;;;;;;;9.65;8.73;;;21.70;89.60;;;22.77;51.98;97483.75;5198583;28;20237;-66
2023/06/19 00:26:06;;;;;;;9.55;8.75;;;21.60;89.80;;;22.67;52.15;97471.59;5197845;28;20283;-65
2023/06/19 00:28:43;;;;;;;9.55;8.88;;;21.60;90.10;;;22.54;52.72;97481.09;5192962;28;20225;-64
2023/06/19 00:31:18;;;;;;;9.63;8.82;;;21.50;90.20;;;22.46;53.22;97480.19;5197550;28;20229;-65
2023/06/19 00:33:51;;;;;;;9.70;9.00;;;21.50;90.50;;;22.44;53.17;97475.00;5191794;28;20229;-66
2023/06/19 00:36:26;;;;;;;9.38;8.68;;;21.50;90.60;;;22.46;52.99;97467.16;5192447;28;20635;-65
2023/06/19 00:38:59;;;;;;;9.63;8.93;;;21.50;90.40;;;22.46;53.25;97473.28;5198690;28;20235;-65
2023/06/19 00:41:33;;;;;;;9.73;9.02;;;21.40;90.70;;;22.39;53.20;97475.84;5199942;28;20221;-66
2023/06/19 00:44:06;;;;;;;9.40;8.68;;;21.40;90.80;;;22.38;53.59;97474.97;5195742;28;20217;-66
2023/06/19 00:46:41;;;;;;;9.45;8.77;;;21.40;91.00;;;22.36;53.88;97478.44;5198485;28;20623;-65
2023/06/19 00:49:16;;;;;;;9.35;8.52;;;21.40;91.10;;;22.30;54.17;97481.88;5195694;28;20307;-65
2023/06/19 00:51:49;;;;;;;9.65;8.75;;;21.30;91.60;;;22.23;54.64;97478.38;5199483;28;20267;-65
2023/06/19 00:54:23;;;;;;;9.60;8.90;;;21.30;91.80;;;22.21;54.78;97480.09;5198804;28;20273;-65
2023/06/19 00:56:56;;;;;;;9.57;8.80;;;21.20;92.10;;;22.17;55.09;97487.84;5199238;28;20705;-65
2023/06/19 00:59:30;;;;;;;9.45;8.75;;;21.20;92.10;;;22.16;54.96;97478.28;5198063;28;20249;-65
2023/06/19 01:02:05;;;;;;;9.40;8.70;;;21.20;92.00;;;22.15;55.57;97484.34;5195038;28;20218;-66
2023/06/19 01:04:39;;;;;;;9.77;9.07;;;21.20;92.60;;;22.14;55.29;97490.44;5192095;28;20236;-66
2023/06/19 01:07:17;;;;;;;9.30;8.52;;;21.20;92.40;;;22.11;55.46;97495.63;5196692;28;20221;-65
2023/06/19 01:09:54;;;;;;;9.18;8.48;;;21.10;92.70;;;22.13;55.48;97493.91;5193556;28;20292;-66
2023/06/19 01:12:34;;;;;;;9.43;8.73;;;21.10;92.90;;;22.09;55.75;97493.03;5195645;28;20767;-65
2023/06/19 01:15:09;;;;;;;9.55;8.85;;;21.10;92.90;;;22.19;55.30;97493.97;5198948;28;20241;-65
2023/06/19 01:17:47;;;;;;;9.50;8.77;;;21.10;92.60;;;22.07;55.11;97499.09;5191752;28;20225;-65
2023/06/19 01:20:20;;;;;;;9.15;8.43;;;21.00;92.20;;;22.03;55.30;97501.66;5196011;28;20247;-64
2023/06/19 01:22:56;;;;;;;9.43;8.73;;;21.00;92.70;;;21.90;55.03;97505.03;5194981;28;20689;-65
2023/06/19 01:25:29;;;;;;;9.27;8.55;;;21.00;92.20;;;21.91;54.89;97504.16;5199414;28;20723;-65
2023/06/19 01:28:05;;;;;;;9.68;8.90;;;21.00;92.20;;;21.97;54.92;97512.03;5193544;28;20228;-65
2023/06/19 01:30:41;;;;;;;10.20;9.40;;;21.00;92.50;;;21.95;54.95;97508.56;5198513;28;20232;-66
2023/06/19 01:33:21;;;;;;;9.85;9.05;;;21.00;92.20;;;21.94;55.03;97514.59;5197131;28;20232;-65
2023/06/19 01:35:56;;;;;;;9.75;9.07;;;21.00;92.50;;;21.95;54.97;97521.56;5193922;28;20229;-65
2023/06/19 01:38:32;;;;;;;10.38;9.48;;;21.10;92.30;;;22.01;54.95;97519.00;5197283;28;20228;-65
2023/06/19 01:41:07;;;;;;;9.60;8.90;;;21.10;92.40;;;22.02;55.11;97512.91;5199236;28;20217;-66
2023/06/19 01:43:41;;;;;;;9.13;8.48;;;21.10;92.30;;;22.08;54.76;97529.44;5199338;28;20240;-65
2023/06/19 01:46:14;;;;;;;9.45;8.65;;;21.20;92.20;;;22.06;55.19;97526.81;5195100;28;20257;-65
2023/06/19 01:48:47;;;;;;;9.73;9.00;;;21.20;92.50;;;22.12;55.07;97529.50;5199682;28;20229;-66
2023/06/19 01:51:21;;;;;;;10.15;9.25;;;21.20;92.40;;;22.14;55.52;97534.69;5201438;28;20238;-65
2023/06/19 01:53:55;;;;;;;9.60;8.90;;;21.20;92.80;;;22.18;55.34;97539.97;5200066;28;20221;-65
2023/06/19 01:56:29;;;;;;;9.93;9.13;;;21.20;92.60;;;22.20;55.49;97540.81;5197718;28;20582;-65
2023/06/19 01:59:02;;;;;;;9.30;8.60;;;21.20;92.90;;;22.16;55.90;97551.19;5199734;28;20237;-66
2023/06/19 02:01:35;;;;;;;9.85;9.05;;;21.20;93.10;;;22.21;55.80;97557.34;5199881;28;20284;-65
2023/06/19 02:04:08;;;;;;;9.93;9.13;;;21.20;93.30;;;22.26;56.25;97547.81;5195617;28;20221;-65
2023/06/19 02:06:42;;;;;;;10.63;9.80;;;21.20;93.60;;;22.16;56.54;97559.00;5198328;28;20249;-64
2023/06/19 02:09:16;;;;;;;10.35;9.48;;;21.10;94.00;;;22.04;57.11;97563.28;5198500;28;20226;-65
2023/06/19 02:11:49;;;;;;;9.73;9.02;;;21.00;94.20;;;22.00;57.74;97568.44;5203278;28;20264;-65
2023/06/19 02:14:23;;;;;;;10.15;9.23;;;21.00;94.40;;;21.98;57.50;97568.44;5201271;28;20773;-64
2023/06/19 02:16:56;;;;;;;10.57;9.68;;;21.00;94.60;;;21.98;57.94;97568.44;5196303;28;20648;-65
2023/06/19 02:19:29;;;;;;;9.27;8.57;;;21.00;95.00;;;21.95;58.24;97564.94;5200233;28;20287;-65
2023/06/19 02:22:02;;;;;;;10.48;9.70;;;21.00;94.80;;;21.91;58.64;97570.97;5196709;28;20233;-64
2023/06/19 02:24:39;;;;;;;10.20;9.50;;;20.90;95.00;;;21.86;58.35;97573.53;5193288;28;20660;-65
2023/06/19 02:27:12;;;;;;;10.38;9.68;;;20.90;95.00;;;21.81;58.32;97581.31;5202040;28;20255;-65
2023/06/19 02:29:45;;;;;;;10.75;9.95;;;20.80;95.30;;;21.77;58.30;97583.88;5197974;28;20259;-65
2023/06/19 02:32:18;;;;;;;9.88;9.10;;;20.70;95.10;;;21.72;58.64;97569.94;5198198;28;20232;-66
2023/06/19 02:34:51;;;;;;;9.73;9.00;;;20.70;95.40;;;21.68;58.68;97578.59;5193472;28;20245;-66
2023/06/19 02:37:24;;;;;;;10.35;9.55;;;20.70;95.40;;;21.67;58.52;97584.66;5198361;28;20229;-66
2023/06/19 02:39:59;;;;;;;10.00;9.20;;;20.60;95.40;;;21.66;58.67;97577.69;5199874;28;20230;-66
2023/06/19 02:42:32;;;;;;;10.45;9.65;;;20.60;95.70;;;21.56;58.97;97572.44;5201266;28;20225;-66
2023/06/19 02:45:06;;;;;;;10.45;9.65;;;20.50;95.60;;;21.53;58.94;97575.00;5198681;28;20253;-66
2023/06/19 02:47:40;;;;;;;10.90;10.00;;;20.50;95.80;;;21.52;59.02;97573.28;5198802;28;20306;-66
2023/06/19 02:50:13;;;;;;;10.25;9.40;;;20.50;95.90;;;21.49;58.91;97574.94;5198643;28;20221;-65
2023/06/19 02:52:46;;;;;;;10.02;9.23;;;20.50;95.90;;;21.48;59.25;97576.69;5197035;28;20272;-65
2023/06/19 02:55:20;;;;;;;10.30;9.50;;;20.50;96.20;;;21.47;59.22;97580.16;5201010;28;20280;-65
2023/06/19 02:57:54;;;;;;;9.77;8.98;;;20.50;96.10;;;21.50;59.59;97580.19;5200488;28;20225;-65
2023/06/19 03:00:28;;;;;;;10.15;9.45;;;20.50;96.50;;;21.44;59.29;97577.53;5197214;28;20241;-66
2023/06/19 03:03:01;;;;;;;10.35;9.65;;;20.50;96.20;;;21.45;59.46;97587.06;5199842;28;20267;-65
2023/06/19 03:05:35;;;;;;;10.40;9.60;;;20.50;96.20;;;21.43;59.91;97593.97;5200399;28;20230;-65
2023/06/19 03:08:08;;;;;;;10.05;9.25;;;20.50;96.60;;;21.30;59.90;97586.88;5200329;28;20265;-65
2023/06/19 03:10:42;;;;;;;9.63;8.93;;;20.30;96.40;;;21.32;59.99;97583.44;5201178;28;20648;-65
2023/06/19 03:13:15;;;;;;;10.20;9.32;;;20.30;96.70;;;21.32;60.20;97596.44;5198168;28;20240;-65
2023/06/19 03:15:48;;;;;;;10.32;9.52;;;20.40;96.80;;;21.34;59.95;97594.72;5200194;28;20229;-65
2023/06/19 03:18:22;;;;;;;9.35;8.65;;;20.40;96.50;;;21.34;59.89;97599.03;5193548;28;20218;-65
2023/06/19 03:20:55;;;;;;;9.10;8.50;;;20.40;96.50;;;21.37;59.74;97599.09;5199761;28;20240;-65
2023/06/19 03:23:29;;;;;;;10.48;9.68;;;20.40;96.70;;;21.42;60.21;97597.44;5200384;28;20602;-65
2023/06/19 03:26:03;;;;;;;9.80;9.10;;;20.40;96.70;;;21.44;60.30;97598.34;5201048;28;20234;-65
2023/06/19 03:28:36;;;;;;;9.75;8.95;;;20.50;96.80;;;21.48;60.46;97602.69;5195536;28;20772;-65
2023/06/19 03:31:10;;;;;;;9.38;8.68;;;20.50;96.80;;;21.47;60.40;97606.16;5198663;28;20283;-65
2023/06/19 03:33:43;;;;;;;9.52;8.80;;;20.50;97.00;;;21.50;60.78;97608.78;5198884;28;20222;-65
2023/06/19 03:36:16;;;;;;;9.45;8.75;;;20.50;97.00;;;21.43;60.59;97609.56;5198729;28;20233;-65
2023/06/19 03:38:49;;;;;;;10.20;9.30;;;20.50;97.00;;;21.44;60.59;97611.34;5199092;28;20295;-65
2023/06/19 03:41:24;;;;;;;9.60;8.77;;;20.50;96.90;;;21.41;60.14;97616.50;5192775;28;20276;-65
2023/06/19 03:43:57;;;;;;;9.90;9.20;;;20.50;96.70;;;21.47;59.88;97613.09;5198692;28;20268;-65
2023/06/19 03:46:30;;;;;;;9.30;8.60;;;20.60;96.60;;;21.57;60.01;97618.38;5195618;28;20685;-65
2023/06/19 03:49:04;;;;;;;10.27;9.38;;;20.70;96.70;;;21.70;59.99;97631.53;5194865;28;20233;-65
2023/06/19 03:51:37;;;;;;;10.05;9.25;;;20.80;96.60;;;21.73;59.98;97623.75;5199413;28;20228;-65
2023/06/19 03:54:10;;;;;;;9.57;8.85;;;20.80;96.60;;;21.75;60.05;97627.25;5197287;28;20262;-65
2023/06/19 03:56:45;;;;;;;9.68;8.98;;;20.90;96.70;;;21.86;59.79;97625.56;5197573;28;20636;-66
2023/06/19 03:59:18;;;;;;;9.75;9.05;;;20.90;96.60;;;21.85;59.81;97626.44;5195033;28;20221;-66
2023/06/19 04:01:51;;;;;;;9.82;8.93;;;21.00;96.70;;;21.90;60.25;97629.97;5186416;28;20387;-66
2023/06/19 04:04:25;;;;;;;9.00;8.40;;;21.00;96.70;;;22.00;60.24;97636.09;5192604;28;20233;-66
2023/06/19 04:06:59;;;;;;;10.00;9.20;;;21.10;96.80;;;22.03;59.72;97634.44;5195269;28;20568;-66
2023/06/19 04:09:32;;;;;;;9.45;8.75;;;21.10;96.70;;;22.02;60.23;97637.00;5194713;28;20225;-66
2023/06/19 04:12:07;;;;;;;8.88;8.13;;;21.20;96.90;;;22.05;60.48;97642.22;5191524;28;20643;-66
2023/06/19 04:14:40;;;;;;;8.85;8.15;;;21.20;97.00;;;22.07;60.73;97645.72;5195446;28;20483;-66
2023/06/19 04:17:15;;;;;;;8.30;7.68;;;21.20;97.40;;;22.25;60.28;97647.63;5194773;28;20694;-66
2023/06/19 04:19:48;;;;;;;8.32;7.60;;;21.30;96.90;;;22.34;59.44;97642.47;5193018;28;20225;-66
2023/06/19 04:22:22;;;;;;;7.40;6.85;;;21.40;96.70;;;22.41;59.31;97641.69;5197525;28;20226;-66
2023/06/19 04:24:55;;;;;;;7.68;7.07;;;21.50;96.70;;;22.35;60.44;97654.66;5196848;28;20222;-66
2023/06/19 04:27:29;;;;;;;7.72;7.13;;;21.50;97.30;;;22.37;60.61;97652.91;5191302;28;20611;-66
2023/06/19 04:30:06;;;;;;;7.30;6.78;;;21.50;97.10;;;22.45;60.16;97653.84;5197211;28;20311;-66
2023/06/19 04:32:40;;;;;;;7.38;6.82;;;21.60;97.10;;;22.54;59.95;97658.25;5199429;28;20658;-66
2023/06/19 04:35:14;;;;;;;7.63;7.03;;;21.70;96.80;;;22.51;59.96;97662.56;5197655;28;20235;-66
2023/06/19 04:37:48;;;;;;;7.22;6.63;;;21.70;96.70;;;22.55;59.82;97664.31;5197403;28;20700;-66
2023/06/19 04:40:22;;;;;;;7.10;6.55;;;21.70;96.70;;;22.65;59.66;97659.19;5196309;28;20279;-66
2023/06/19 04:42:57;;;;;;;7.80;7.30;;;21.80;96.70;;;22.69;59.52;97663.56;5189377;28;20713;-66
2023/06/19 04:45:30;;;;;;;6.78;6.22;;;21.80;96.60;;;22.71;59.52;97658.34;5197291;28;20643;-66
2023/06/19 04:48:03;;;;;;;6.50;6.10;;;21.90;96.40;;;22.77;59.32;97671.41;5192200;28;20254;-66
2023/06/19 04:50:36;;;;;;;6.70;6.20;;;21.90;96.60;;;22.85;58.73;97674.94;5200353;28;20603;-66
2023/06/19 04:53:10;;;;;;;6.57;6.07;;;22.00;96.10;;;22.97;58.40;97670.69;5195616;28;20230;-67
2023/06/19 04:55:45;;;;;;;6.93;6.22;;;22.10;95.90;;;23.05;57.61;97667.25;5190652;28;20241;-66
2023/06/19 04:58:20;;;;;;;6.40;6.00;;;22.20;95.40;;;23.20;56.90;97673.38;5196324;28;20587;-66
2023/06/19 05:00:54;;;;;;;6.50;6.10;;;22.30;95.20;;;23.24;57.38;97668.19;5195253;28;20600;-66
2023/06/19 05:03:27;;;;;;;6.55;6.05;;;22.30;95.40;;;23.33;56.61;97677.81;5199932;28;20252;-66
2023/06/19 05:06:00;;;;;;;7.00;6.50;;;22.40;95.00;;;23.38;57.20;97681.31;5198084;28;20233;-66
2023/06/19 05:08:34;;;;;;;6.53;5.85;;;22.50;94.90;;;23.50;56.40;97685.69;5200186;28;20280;-66
2023/06/19 05:11:07;;;;;;;6.93;6.30;;;22.50;94.70;;;23.57;56.14;97682.22;5201291;28;20237;-66
2023/06/19 05:13:41;;;;;;;6.55;6.15;;;22.60;94.70;;;23.63;56.02;97676.13;5200156;28;20300;-66
2023/06/19 05:16:16;;;;;;;6.55;5.95;;;22.70;94.50;;;23.69;55.90;97671.78;5198216;28;20275;-66
2023/06/19 05:18:51;;;;;;;6.95;6.25;;;22.80;94.40;;;23.76;55.23;97673.59;5194218;28;20275;-66
2023/06/19 05:21:24;;;;;;;6.93;6.32;;;22.80;94.00;;;23.82;55.00;97677.94;5196256;28;20229;-66
2023/06/19 05:23:57;;;;;;;7.28;6.60;;;22.80;93.80;;;23.83;55.08;97680.56;5198111;28;20229;-66
2023/06/19 05:26:30;;;;;;;6.50;5.93;;;22.80;94.00;;;23.96;54.27;97681.44;5203598;28;20244;-66
2023/06/19 05:29:08;;;;;;;6.43;5.93;;;22.90;93.60;;;23.99;54.51;97691.03;5199825;28;20222;-66
2023/06/19 05:31:41;;;;;;;7.00;6.50;;;22.90;93.60;;;24.03;54.72;97688.41;5201936;28;20220;-66
2023/06/19 05:34:14;;;;;;;6.72;6.22;;;23.00;93.80;;;24.07;54.46;97694.53;5201699;28;20331;-67
2023/06/19 05:36:48;;;;;;;7.25;6.72;;;23.10;93.70;;;24.09;54.80;97692.75;5203180;28;20230;-66
2023/06/19 05:39:21;;;;;;;5.85;5.45;;;23.10;93.90;;;24.16;53.89;97689.31;5198167;28;20610;-67
2023/06/19 05:41:55;;;;;;;6.82;6.32;;;23.10;93.50;;;24.19;53.86;97694.53;5203021;28;20316;-66
2023/06/19 05:44:29;;;;;;;6.85;6.10;;;23.10;93.50;;;24.25;54.19;97697.13;5200173;28;20268;-66
2023/06/19 05:47:03;;;;;;;6.65;6.25;;;23.10;93.60;;;24.31;53.94;97698.00;5201732;28;20715;-66
2023/06/19 05:49:36;;;;;;;5.97;5.50;;;23.20;93.40;;;24.37;53.63;97700.63;5194592;28;20226;-66
2023/06/19 05:52:09;;;;;;;6.07;5.60;;;23.30;93.20;;;24.51;52.87;97698.91;5201377;28;20260;-66
2023/06/19 05:54:42;;;;;;;6.03;5.63;;;23.40;93.20;;;24.53;52.71;97696.31;5197216;28;20233;-66
2023/06/19 05:57:18;;;;;;;6.88;6.38;;;23.40;92.60;;;24.63;52.80;97706.72;5200441;28;20698;-66
2023/06/19 05:59:53;;;;;;;6.90;6.07;;;23.50;92.60;;;24.72;52.27;97701.50;5194088;28;20228;-66
2023/06/19 06:02:28;;;;;;;6.47;6.03;;;23.60;92.40;;;24.87;52.17;97702.34;5199088;28;20268;-67
2023/06/19 06:05:01;;;;;;;6.55;6.05;;;23.70;92.20;;;24.94;52.32;97697.06;5201069;28;20275;-66
2023/06/19 06:07:35;;;;;;;5.93;5.53;;;23.70;92.30;;;25.16;51.54;97703.16;5200774;28;20218;-66
2023/06/19 06:10:12;;;;;;;6.30;5.90;;;24.00;92.00;;;25.46;51.27;97709.13;5192684;28;20221;-66
2023/06/19 06:12:45;;;;;;;5.60;5.10;;;24.20;91.60;;;25.60;50.12;97715.16;5203693;28;20275;-66
2023/06/19 06:15:20;;;;;;;5.47;4.97;;;24.40;91.30;;;25.84;49.89;97716.84;5191328;28;20229;-66
2023/06/19 06:17:53;;;;;;;5.65;5.20;;;24.50;90.90;;;26.23;49.29;97721.81;5202638;28;20251;-66
2023/06/19 06:20:26;;;;;;;5.57;5.18;;;24.90;90.30;;;26.50;47.97;97729.50;5201281;28;20533;-66
2023/06/19 06:22:59;;;;;;;5.35;4.95;;;25.10;89.40;;;26.63;47.55;97721.50;5198388;28;20242;-66
2023/06/19 06:25:32;;;;;;;5.68;5.20;;;25.30;88.60;;;26.56;47.57;97735.56;5202499;28;20256;-66
2023/06/19 06:28:06;;;;;;;5.43;4.93;;;25.10;88.80;;;26.52;47.75;97729.47;5202879;28;20225;-65
2023/06/19 06:30:40;;;;;;;5.60;5.10;;;25.10;89.40;;;26.54;47.92;97732.09;5197019;28;20225;-66
2023/06/19 06:33:13;;;;;;;5.25;4.90;;;25.10;89.20;;;26.51;47.72;97731.22;5201478;28;20574;-66
2023/06/19 06:35:46;;;;;;;5.47;4.97;;;25.10;89.10;;;26.42;47.95;97730.41;5195718;28;20647;-65
2023/06/19 06:38:19;;;;;;;5.18;4.80;;;25.00;89.30;;;26.51;48.07;97728.59;5202604;28;20632;-66
2023/06/19 06:40:53;;;;;;;5.60;5.20;;;25.00;89.70;;;26.44;48.51;97731.22;5197321;28;20255;-66
2023/06/19 06:43:26;;;;;;;5.43;4.93;;;25.10;89.70;;;26.45;48.59;97733.84;5198007;28;20681;-66
2023/06/19 06:46:00;;;;;;;5.47;5.03;;;24.90;90.00;;;26.51;47.90;97744.31;5190648;28;20222;-66
2023/06/19 06:48:34;;;;;;;5.00;4.60;;;25.00;90.00;;;26.67;48.33;97729.34;5200984;28;20232;-66
2023/06/19 06:51:08;;;;;;;4.82;4.43;;;25.30;89.70;;;27.32;46.85;97733.94;5203226;28;20217;-66
2023/06/19 06:53:42;;;;;;;4.70;4.38;;;25.90;88.20;;;27.88;45.15;97744.66;5202348;28;20631;-66
2023/06/19 06:56:15;;;;;;;5.13;4.72;;;26.60;85.10;;;28.46;43.74;97744.66;5197603;28;20283;-66
2023/06/19 06:58:48;;;;;;;4.63;4.22;;;27.00;84.00;;;28.61;42.96;97745.28;5200961;28;20576;-65
2023/06/19 07:01:22;;;;;;;4.57;4.20;;;27.10;83.30;;;29.06;42.46;97735.75;5198372;28;20567;-66
2023/06/19 07:03:55;;;;;;;4.05;3.72;;;27.50;81.90;;;29.38;41.86;97735.13;5198769;28;20224;-66
2023/06/19 07:06:28;;;;;;;4.07;3.78;;;27.70;81.00;;;29.76;40.48;97751.06;5200461;28;20717;-65
2023/06/19 07:09:02;;;;;;;4.28;3.90;;;28.10;80.20;;;29.88;40.74;97748.16;5199500;28;20283;-66
2023/06/19 07:11:35;;;;;;;4.43;4.13;;;28.10;79.90;;;29.85;41.16;97748.25;5195830;28;20225;-66
2023/06/19 07:14:08;;;;;;;3.60;3.40;;;28.20;80.00;;;29.91;40.00;97756.00;5199956;28;20296;-65
2023/06/19 07:16:42;;;;;;;3.88;3.58;;;28.40;78.50;;;30.37;39.30;97760.25;5202262;28;20693;-66
2023/06/19 07:19:16;;;;;;;4.18;3.88;;;28.80;77.70;;;31.01;38.38;97756.94;5199640;28;20225;-66
2023/06/19 07:21:51;;;;;;;3.80;3.60;;;29.50;76.20;;;31.24;37.73;97756.31;5192660;28;20279;-66
2023/06/19 07:24:24;;;;;;;3.60;3.40;;;29.50;75.30;;;31.37;37.80;97763.88;5197728;28;20236;-67
2023/06/19 07:26:57;;;;;;;3.65;3.45;;;29.60;75.50;;;31.69;37.46;97759.47;5194664;28;20606;-67
2023/06/19 07:29:31;;;;;;;3.53;3.30;;;29.90;75.10;;;32.18;36.65;97760.63;5201142;28;20544;-66
2023/06/19 07:32:08;;;;;;;3.30;3.10;;;30.50;73.70;;;32.60;35.32;97760.22;5197364;28;20210;-65
2023/06/19 07:34:41;;;;;;;3.35;3.05;;;30.90;72.40;;;33.14;34.21;97766.38;5201853;28;20283;-66
2023/06/19 07:37:17;;;;;;;3.95;2.83;;;31.40;70.90;;;33.28;33.89;97758.81;5195136;28;20268;-66
2023/06/19 07:39:52;;;;;;;3.15;2.95;;;31.50;70.50;;;33.60;33.82;97765.59;5202260;28;20221;-67
2023/06/19 07:42:27;;;;;;;3.08;2.88;;;31.40;70.30;;;33.93;33.20;97754.63;5201519;28;20237;-67
2023/06/19 07:45:00;;;;;;;3.20;2.90;;;31.90;69.40;;;33.97;32.75;97750.06;5198604;28;20225;-66
2023/06/19 07:47:34;;;;;;;3.40;3.10;;;31.90;68.50;;;33.76;33.50;97744.66;5190367;28;20259;-67
2023/06/19 07:50:08;;;;;;;3.03;2.83;;;31.70;69.10;;;33.53;33.04;97748.16;5199194;28;20225;-67
2023/06/19 07:52:41;;;;;;;4.20;3.08;;;31.40;69.80;;;33.32;33.74;97738.34;5199783;28;20236;-66
2023/06/19 07:55:15;;;;;;;3.67;3.38;;;31.00;71.50;;;32.73;35.07;97745.63;5201395;28;20225;-66
2023/06/19 07:57:48;;;;;;;3.25;2.95;;;30.40;71.60;;;32.44;34.96;97754.50;5198374;28;20650;-65
2023/06/19 08:00:21;;;;;;;5.85;3.38;;;30.20;72.40;;;32.02;35.95;97754.09;5200531;28;20703;-67
2023/06/19 08:02:57;;;;;;;3.05;2.75;;;29.80;73.00;;;31.59;36.57;97747.41;5185777;28;20232;-66
2023/06/19 08:05:30;;;;;;;3.35;3.08;;;29.40;73.60;;;31.27;37.19;97745.66;5199817;28;20236;-66
2023/06/19 08:08:04;;;;;;;2.80;2.70;;;29.10;74.60;;;31.05;37.72;97746.25;5200189;28;20216;-66
2023/06/19 08:10:37;;;;;;;3.70;3.40;;;28.90;75.10;;;30.86;38.35;97756.44;5201345;28;20783;-67
2023/06/19 08:13:11;;;;;;;3.28;2.88;;;28.80;75.50;;;30.72;38.79;97762.03;5201205;28;20299;-66
2023/06/19 08:15:45;;;;;;;2.90;2.70;;;28.60;76.50;;;30.61;38.57;97761.41;5199966;28;20229;-67
2023/06/19 08:18:19;;;;;;;3.22;2.92;;;28.60;76.10;;;30.58;38.55;97763.28;5200635;28;20221;-66
2023/06/19 08:20:52;;;;;;;3.10;2.90;;;28.70;76.20;;;31.01;38.39;97767.50;5197542;28;20220;-66
2023/06/19 08:23:25;;;;;;;2.95;2.75;;;29.00;76.00;;;31.10;37.67;97764.59;5191597;28;20236;-66
2023/06/19 08:25:59;;;;;;;3.05;2.85;;;29.30;74.40;;;30.95;37.63;97760.59;5195338;28;20336;-66
2023/06/19 08:28:33;;;;;;;3.00;2.80;;;29.20;74.10;;;30.77;37.75;97755.78;5194264;28;20319;-67
2023/06/19 08:31:06;;;;;;;2.95;2.65;;;29.00;74.40;;;30.76;37.77;97744.31;5200518;28;20212;-67
2023/06/19 08:33:40;;;;;;;2.88;2.67;;;29.00;74.50;;;30.83;37.82;97751.22;5200885;28;20233;-68
2023/06/19 08:36:14;;;;;;;3.17;2.90;;;29.10;73.50;;;30.63;37.90;97748.19;5200695;28;20228;-68
2023/06/19 08:38:49;;;;;;;2.80;2.60;;;29.00;74.70;;;30.45;37.99;97744.25;5200105;28;20640;-66
2023/06/19 08:41:23;;;;;;;2.65;2.45;;;28.90;74.40;;;30.50;38.27;97750.25;5199736;28;20368;-66
2023/06/19 08:43:56;;;;;;;2.97;2.78;;;28.80;74.50;;;30.24;38.50;97746.47;5194374;28;20287;-65
2023/06/19 08:46:29;;;;;;;3.28;3.03;;;28.50;75.30;;;30.11;39.29;97749.44;5195529;28;20777;-66
2023/06/19 08:49:06;;;;;;;3.78;3.47;;;28.60;76.00;;;30.17;39.77;97747.50;5195188;28;20213;-66
2023/06/19 08:51:39;;;;;;;3.20;2.90;;;28.70;75.90;;;30.27;39.15;97735.00;5200696;28;20232;-66
2023/06/19 08:54:13;;;;;;;3.30;3.10;;;28.70;75.60;;;30.40;39.37;97741.72;5197557;28;20237;-66
2023/06/19 08:56:48;;;;;;;3.38;3.17;;;28.80;75.80;;;30.72;38.83;97733.00;5197044;28;20256;-66
2023/06/19 08:59:22;;;;;;;3.72;3.53;;;29.30;75.40;;;30.94;37.94;97732.47;5198579;28;20224;-66
2023/06/19 09:01:55;;;;;;;3.30;3.10;;;29.60;73.70;;;31.18;37.79;97730.94;5204004;28;20600;-66
2023/06/19 09:04:30;;;;;;;3.22;3.03;;;29.70;73.10;;;31.48;36.64;97729.25;5204045;28;20236;-66
2023/06/19 09:07:05;;;;;;;2.92;2.67;;;30.50;71.10;;;31.59;36.15;97728.91;5202922;28;20228;-65
2023/06/19 09:09:47;;;;;;;3.22;2.92;;;30.50;70.50;;;31.92;36.31;97726.22;5196897;28;20221;-66
2023/06/19 09:12:20;;;;;;;3.25;3.05;;;30.80;70.70;;;32.10;35.44;97733.56;5204532;28;20221;-65
2023/06/19 09:14:53;;;;;;;3.20;3.00;;;31.20;69.70;;;32.43;34.88;97730.75;5204071;28;20263;-66
2023/06/19 09:17:26;;;;;;;3.10;2.90;;;31.50;67.60;;;32.45;34.63;97729.84;5204057;28;20749;-66
2023/06/19 09:20:01;;;;;;;3.17;2.97;;;31.50;68.20;;;32.84;34.39;97716.16;5194738;28;20267;-67
2023/06/19 09:22:34;;;;;;;3.60;2.97;;;32.00;67.40;;;32.85;33.90;97723.19;5203879;28;20308;-66
2023/06/19 09:25:10;;;;;;;2.38;2.17;;;32.20;65.80;;;33.00;31.99;97713.00;5200203;28;20710;-66
2023/06/19 09:27:43;;;;;;;2.15;2.05;;;32.20;63.60;;;32.82;32.17;97717.13;5204148;28;20286;-66
2023/06/19 09:30:17;;;;;;;2.30;2.10;;;32.00;63.80;;;32.73;33.17;97724.44;5199649;28;20267;-67
2023/06/19 09:32:50;;;;;;;2.40;2.30;;;32.00;65.00;;;32.50;33.15;97727.00;5200584;28;20225;-66
2023/06/19 09:35:25;;;;;;;2.63;2.47;;;31.80;63.70;;;32.44;33.36;97717.47;5204038;28;20229;-66
2023/06/19 09:37:59;;;;;;;3.00;2.72;;;31.70;65.00;;;32.62;33.20;97716.00;5203653;28;20224;-66
2023/06/19 09:40:32;;;;;;;2.45;2.35;;;31.90;65.20;;;32.62;33.79;97715.16;5203777;28;20239;-66
2023/06/19 09:43:07;;;;;;;2.55;2.35;;;31.90;64.90;;;32.66;33.03;97717.66;5203997;28;20598;-66
2023/06/19 09:45:41;;;;;;;1.90;1.80;;;32.00;64.70;;;32.68;31.41;97713.19;5202839;28;20237;-66
2023/06/19 09:48:19;;;;;;;1.95;1.85;;;32.10;61.70;;;32.77;31.54;97713.78;5201479;28;20217;-66
2023/06/19 09:51:01;;;;;;;2.17;1.88;;;32.00;62.30;;;32.66;31.93;97717.66;5203747;28;20256;-66
2023/06/19 09:53:36;;;;;;;2.95;2.45;;;31.80;62.40;;;32.72;32.29;97714.78;5200541;28;20221;-65
2023/06/19 09:56:10;;;;;;;2.63;2.10;;;32.00;62.40;;;32.75;31.90;97708.53;5200020;28;20690;-66
2023/06/19 09:58:44;;;;;;;2.13;2.03;;;32.00;62.30;;;32.92;31.93;97708.81;5196815;28;20739;-66
2023/06/19 10:01:19;;;;;;;3.25;2.30;;;31.90;62.60;;;32.84;31.78;97707.34;5199300;28;20248;-66
2023/06/19 10:04:04;;;;;;;2.45;2.28;;;32.00;62.50;;;32.77;32.53;97708.50;5197567;28;20272;-66
2023/06/19 10:06:46;;;;;;;2.47;2.33;;;31.80;62.90;;;32.75;32.75;97712.03;5198697;28;20236;-66
2023/06/19 10:09:19;;;;;;;2.33;2.08;;;31.80;63.40;;;32.87;32.75;97716.03;5192222;28;20630;-66
2023/06/19 10:11:54;;;;;;;2.53;2.30;;;32.00;63.80;;;32.86;32.35;97716.09;5195789;28;20723;-66
2023/06/19 10:14:27;;;;;;;2.50;2.40;;;32.00;63.00;;;32.84;31.74;97717.94;5198674;28;20652;-66
2023/06/19 10:17:09;;;;;;;2.42;2.22;;;31.90;62.20;;;32.52;32.51;97714.59;5195006;28;20721;-66
2023/06/19 10:19:52;;;;;;;2.75;2.55;;;31.50;63.60;;;32.46;32.94;97717.47;5201917;28;20906;-66
2023/06/19 10:22:31;;;;;;;2.42;2.33;;;31.50;64.10;;;32.26;32.55;97716.28;5203063;28;20237;-66
2023/06/19 10:25:05;;;;;;;2.60;2.40;;;31.30;63.70;;;32.38;32.48;97712.38;5200656;28;20295;-66
2023/06/19 10:27:39;;;;;;;2.70;2.50;;;31.40;63.60;;;32.33;33.03;97709.00;5201579;28;20221;-66
2023/06/19 10:30:19;;;;;;;2.83;2.63;;;31.40;64.50;;;32.34;33.05;97707.22;5202187;28;20743;-66
2023/06/19 10:32:53;;;;;;;2.90;2.55;;;31.40;63.70;;;32.26;33.63;97705.72;5194196;28;20267;-66
2023/06/19 10:35:26;;;;;;;2.55;2.40;;;31.30;64.80;;;32.28;33.74;97706.53;5201632;28;20229;-66
2023/06/19 10:38:01;;;;;;;2.40;2.30;;;31.50;64.90;;;32.48;33.22;97703.25;5201078;28;20217;-66
2023/06/19 10:40:34;;;;;;;2.70;2.60;;;31.70;64.40;;;32.49;32.97;97698.81;5196051;28;20225;-67
2023/06/19 10:43:07;;;;;;;2.38;2.28;;;31.60;63.90;;;32.72;31.84;97693.59;5201117;28;20233;-66
2023/06/19 10:45:40;;;;;;;2.83;2.63;;;31.80;62.70;;;32.61;32.06;97693.13;5201875;28;20275;-66